Time;durP1;ratioP1;P1;durP2;ratioP2;P2;SDS_P1;SDS_P2;PMS_P1;PMS_P2;Temp;Humidity;BMP_temperature;BMP_pressure;BME280_temperature;BME280_humidity;BME280_pressure;Samples;Min_cycle;Max_cycle;Signal;HPM_P1;HPM_P2
2021/12/19 00:09:09;;;;;;;11.75;1.73;;;7.90;99.90;;;;;;5024544;28;20041;-74
2021/12/19 00:11:35;;;;;;;14.27;2.00;;;7.90;99.90;;;;;;5023383;28;20628;-73
2021/12/19 00:14:01;;;;;;;0.85;0.60;;;7.90;99.90;;;;;;5024534;28;20061;-71
2021/12/19 00:16:28;;;;;;;5.97;1.73;;;7.90;99.90;;;;;;5024488;28;20026;-73
2021/12/19 00:18:54;;;;;;;7.85;1.40;;;7.90;99.90;;;;;;5023371;28;20026;-72
2021/12/19 00:21:25;;;;;;;10.32;1.00;;;7.90;99.90;;;;;;5024178;28;20058;-74
2021/12/19 00:24:04;;;;;;;3.25;1.70;;;7.90;99.90;;;;;;5024699;28;20026;-75
2021/12/19 00:26:30;;;;;;;12.43;1.38;;;7.90;99.90;;;;;;5024558;28;20105;-74
2021/12/19 00:28:56;;;;;;;15.93;1.20;;;7.90;99.90;;;;;;5025329;28;20033;-73
2021/12/19 00:31:21;;;;;;;1.63;1.00;;;7.90;99.90;;;;;;5026936;28;20022;-75
2021/12/19 00:33:50;;;;;;;7.03;1.50;;;7.90;99.90;;;;;;5028248;28;20030;-74
2021/12/19 00:36:17;;;;;;;13.38;2.30;;;7.90;99.90;;;;;;5028175;28;20033;-72
2021/12/19 00:38:43;;;;;;;3.90;1.35;;;7.90;99.90;;;;;;5026633;28;20111;-74
2021/12/19 00:41:09;;;;;;;2.03;1.08;;;7.90;99.90;;;;;;5027718;28;20478;-73
2021/12/19 00:43:43;;;;;;;5.82;1.60;;;7.90;99.90;;;;;;5027673;28;20076;-73
2021/12/19 00:46:10;;;;;;;3.78;1.58;;;7.90;99.90;;;;;;5028001;28;20058;-74
2021/12/19 00:48:56;;;;;;;3.67;1.75;;;7.90;99.90;;;;;;5027720;28;20403;-73
2021/12/19 00:51:25;;;;;;;1.92;1.35;;;7.90;99.90;;;;;;5026282;28;20088;-74
2021/12/19 00:53:52;;;;;;;6.20;1.00;;;7.90;99.90;;;;;;5027739;28;20042;-72
2021/12/19 00:56:18;;;;;;;6.85;0.93;;;7.90;99.90;;;;;;5027938;28;20026;-73
2021/12/19 00:58:44;;;;;;;4.18;1.27;;;7.90;99.90;;;;;;5026438;28;20072;-74
2021/12/19 01:01:12;;;;;;;3.05;0.90;;;7.90;99.90;;;;;;5027576;28;20038;-75
2021/12/19 01:03:43;;;;;;;5.22;1.65;;;7.90;99.90;;;;;;5026169;28;20045;-73
2021/12/19 01:06:08;;;;;;;3.63;1.60;;;7.90;99.90;;;;;;5026380;28;20029;-72
2021/12/19 01:08:34;;;;;;;6.40;1.20;;;7.80;99.90;;;;;;5027165;28;20052;-73
2021/12/19 01:11:00;;;;;;;8.32;2.08;;;7.90;99.90;;;;;;5026039;28;20057;-72
2021/12/19 01:13:25;;;;;;;3.60;1.30;;;7.90;99.90;;;;;;5025945;28;20034;-73
2021/12/19 01:15:53;;;;;;;6.57;2.08;;;7.80;99.90;;;;;;5027142;28;20049;-72
2021/12/19 01:18:19;;;;;;;6.60;2.67;;;7.90;99.90;;;;;;5027293;28;20030;-72
2021/12/19 01:20:45;;;;;;;9.20;2.03;;;7.90;99.90;;;;;;5027017;28;20037;-75
2021/12/19 01:23:12;;;;;;;10.82;2.25;;;7.90;99.90;;;;;;5027275;28;20048;-72
2021/12/19 01:25:38;;;;;;;4.82;1.83;;;7.90;99.90;;;;;;5027031;28;20026;-73
2021/12/19 01:28:04;;;;;;;16.85;2.67;;;7.90;99.90;;;;;;5025719;28;20053;-72
2021/12/19 01:30:30;;;;;;;4.93;2.05;;;7.90;99.90;;;;;;5025714;28;20022;-73
2021/12/19 01:32:56;;;;;;;4.57;1.50;;;7.90;99.90;;;;;;5025603;28;20080;-72
2021/12/19 01:35:24;;;;;;;6.57;2.53;;;7.90;99.90;;;;;;5026672;28;20112;-71
2021/12/19 01:37:50;;;;;;;9.50;1.90;;;7.90;99.90;;;;;;5025699;28;20040;-72
2021/12/19 01:40:19;;;;;;;15.75;3.20;;;7.90;99.90;;;;;;5025441;28;20026;-73
2021/12/19 01:42:50;;;;;;;4.68;1.80;;;7.90;99.90;;;;;;5026686;28;20125;-73
2021/12/19 01:45:23;;;;;;;2.67;1.17;;;7.90;99.90;;;;;;5026828;28;20041;-75
2021/12/19 01:47:49;;;;;;;13.93;1.98;;;7.80;99.90;;;;;;5026806;28;20026;-71
2021/12/19 01:50:15;;;;;;;4.05;1.00;;;7.90;99.90;;;;;;5026786;28;20081;-74
2021/12/19 01:52:41;;;;;;;2.92;1.33;;;7.80;99.90;;;;;;5025210;28;20471;-74
2021/12/19 01:55:07;;;;;;;17.15;1.52;;;7.80;99.90;;;;;;5025006;28;20042;-73
2021/12/19 01:57:34;;;;;;;7.78;1.65;;;7.80;99.90;;;;;;5026437;28;20025;-73
2021/12/19 02:00:01;;;;;;;2.20;0.93;;;7.80;99.90;;;;;;5026375;28;20021;-74
2021/12/19 02:02:26;;;;;;;1.85;0.95;;;7.80;99.90;;;;;;5024788;28;20045;-73
2021/12/19 02:04:52;;;;;;;8.70;1.40;;;7.70;99.90;;;;;;5026352;28;20026;-73
2021/12/19 02:07:18;;;;;;;2.92;1.00;;;7.70;99.90;;;;;;5026237;28;20037;-74
2021/12/19 02:09:45;;;;;;;7.80;1.13;;;7.70;99.90;;;;;;5026247;28;20022;-71
2021/12/19 02:12:11;;;;;;;6.05;1.95;;;7.70;99.90;;;;;;5029189;28;20030;-74
2021/12/19 02:14:37;;;;;;;8.90;2.38;;;7.70;99.90;;;;;;5026275;28;20034;-74
2021/12/19 02:17:07;;;;;;;16.73;1.45;;;7.70;99.90;;;;;;5024713;28;20029;-74
2021/12/19 02:19:33;;;;;;;11.63;1.98;;;7.70;99.90;;;;;;5026082;28;20036;-70
2021/12/19 02:21:59;;;;;;;5.40;1.27;;;7.70;99.90;;;;;;5025447;28;20078;-68
2021/12/19 02:24:28;;;;;;;5.47;1.05;;;7.70;99.90;;;;;;5024379;28;20036;-72
2021/12/19 02:26:55;;;;;;;1.77;1.05;;;7.70;99.90;;;;;;5037980;28;20033;-72
2021/12/19 02:29:21;;;;;;;4.00;1.75;;;7.70;99.90;;;;;;5045761;28;20026;-74
2021/12/19 02:31:46;;;;;;;6.30;2.28;;;7.70;99.90;;;;;;5044400;28;20040;-74
2021/12/19 02:34:25;;;;;;;11.32;2.00;;;7.70;99.90;;;;;;5045890;28;20029;-72
2021/12/19 02:37:01;;;;;;;1.77;1.13;;;7.70;99.90;;;;;;5045729;28;20419;-72
2021/12/19 02:39:55;;;;;;;13.43;2.33;;;7.70;99.90;;;;;;5045521;28;20037;-73
2021/12/19 02:48:10;;;;;;;6.30;1.60;;;7.70;99.90;;;;;;5045354;28;20045;-75
2021/12/19 02:50:33;;;;;;;2.72;1.33;;;7.70;99.90;;;;;;5045651;28;20040;-73
2021/12/19 02:52:59;;;;;;;9.45;1.67;;;7.80;99.90;;;;;;5043448;28;20030;-74
2021/12/19 02:55:25;;;;;;;9.38;1.77;;;7.80;99.90;;;;;;5045370;28;20067;-74
2021/12/19 02:57:51;;;;;;;6.57;1.63;;;7.80;99.90;;;;;;5044126;28;20389;-74
2021/12/19 03:00:25;;;;;;;7.68;1.63;;;7.90;99.90;;;;;;5045013;28;20021;-75
2021/12/19 03:02:51;;;;;;;;;;;7.80;99.90;;;;;;5045503;28;20033;-75
2021/12/19 03:05:17;;;;;;;10.77;1.75;;;7.80;99.90;;;;;;5043893;28;19905;-74
2021/12/19 03:07:51;;;;;;;9.68;2.08;;;7.80;99.90;;;;;;5045437;28;20033;-75
2021/12/19 03:19:00;;;;;;;12.38;1.98;;;7.80;99.90;;;;;;5025262;28;20029;-73
2021/12/19 03:21:26;;;;;;;9.85;1.90;;;7.80;99.90;;;;;;5024814;28;20054;-74
2021/12/19 03:23:52;;;;;;;8.88;2.47;;;7.80;99.90;;;;;;5025246;28;20038;-74
2021/12/19 03:26:18;;;;;;;9.15;3.08;;;7.80;99.90;;;;;;5025242;28;20022;-76
2021/12/19 03:28:43;;;;;;;12.45;2.33;;;7.80;99.90;;;;;;5025234;28;20398;-73
2021/12/19 03:31:10;;;;;;;13.85;2.70;;;7.80;99.90;;;;;;5025217;28;20455;-74
2021/12/19 03:33:37;;;;;;;5.07;2.55;;;7.80;99.90;;;;;;5023710;28;20026;-73
2021/12/19 03:36:05;;;;;;;4.78;3.20;;;7.80;99.90;;;;;;5025177;28;20033;-74
2021/12/19 03:38:33;;;;;;;10.38;2.92;;;7.80;99.90;;;;;;5024978;28;20041;-73
2021/12/19 03:41:21;;;;;;;6.30;2.17;;;7.80;99.90;;;;;;5023652;28;20122;-74
2021/12/19 03:43:48;;;;;;;4.47;1.92;;;7.80;99.90;;;;;;5023837;28;20040;-74
2021/12/19 03:46:14;;;;;;;10.50;2.47;;;7.80;99.90;;;;;;5025404;28;20030;-75
2021/12/19 03:48:41;;;;;;;9.23;2.25;;;7.80;99.90;;;;;;5024932;28;20080;-71
2021/12/19 03:51:06;;;;;;;6.68;2.25;;;7.80;99.90;;;;;;5023552;28;20026;-75
2021/12/19 03:53:32;;;;;;;7.03;2.10;;;7.90;99.90;;;;;;5024734;28;20081;-74
2021/12/19 03:55:58;;;;;;;9.93;3.63;;;7.80;99.90;;;;;;5024977;28;20026;-74
2021/12/19 03:58:24;;;;;;;16.10;2.60;;;7.80;99.90;;;;;;5024655;28;20026;-74
2021/12/19 04:00:53;;;;;;;17.80;2.85;;;7.80;99.90;;;;;;5024815;28;20026;-74
2021/12/19 04:03:20;;;;;;;7.35;2.78;;;7.90;99.90;;;;;;5023658;28;20037;-74
2021/12/19 04:05:52;;;;;;;10.52;2.75;;;7.80;99.90;;;;;;5028552;28;20030;-75
2021/12/19 04:08:20;;;;;;;14.40;2.85;;;7.90;99.90;;;;;;5028477;28;20108;-75
2021/12/19 04:10:48;;;;;;;4.13;2.60;;;7.80;99.90;;;;;;5028594;28;20026;-73
2021/12/19 04:13:16;;;;;;;4.80;2.03;;;7.80;99.90;;;;;;5028586;28;20018;-73
2021/12/19 04:15:41;;;;;;;10.73;3.22;;;7.90;99.90;;;;;;5028694;28;20084;-72
2021/12/19 04:18:07;;;;;;;7.47;2.65;;;7.80;99.90;;;;;;5026953;28;20450;-74
2021/12/19 04:20:33;;;;;;;4.53;1.95;;;7.80;99.90;;;;;;5028010;28;20459;-74
2021/12/19 04:22:58;;;;;;;7.72;1.92;;;7.80;99.90;;;;;;5028093;28;20050;-72
2021/12/19 04:25:24;;;;;;;5.32;2.50;;;7.80;99.90;;;;;;5026893;28;20094;-75
2021/12/19 04:27:50;;;;;;;12.27;2.35;;;7.80;99.90;;;;;;5028028;28;20032;-71
2021/12/19 04:30:33;;;;;;;15.45;3.00;;;7.80;99.90;;;;;;5028285;28;20025;-73
2021/12/19 04:33:05;;;;;;;5.07;2.47;;;7.80;99.90;;;;;;5028287;28;20038;-73
2021/12/19 04:35:35;;;;;;;5.45;2.08;;;7.70;99.90;;;;;;5028144;28;20029;-74
2021/12/19 04:39:16;;;;;;;5.30;2.40;;;7.70;99.90;;;;;;5028082;28;20022;-75
2021/12/19 04:54:18;;;;;;;13.45;2.03;;;7.80;99.90;;;;;;5027731;28;20112;-74
2021/12/19 05:02:16;;;;;;;5.82;2.47;;;7.70;99.90;;;;;;5027747;28;20073;-75
2021/12/19 05:15:32;;;;;;;8.57;2.45;;;7.70;99.90;;;;;;5027144;28;20033;-75
2021/12/19 05:18:02;;;;;;;9.52;2.55;;;7.60;99.90;;;;;;5025827;28;20026;-74
2021/12/19 05:20:29;;;;;;;7.43;2.13;;;7.60;99.90;;;;;;5027076;28;20026;-73
2021/12/19 05:23:03;;;;;;;5.05;1.90;;;7.60;99.90;;;;;;5027068;28;20038;-75
2021/12/19 05:25:29;;;;;;;10.65;2.45;;;7.60;99.90;;;;;;5027333;28;20026;-75
2021/12/19 05:27:56;;;;;;;3.70;1.48;;;7.60;99.90;;;;;;5026787;28;20037;-72
2021/12/19 05:30:23;;;;;;;11.48;2.67;;;7.60;99.90;;;;;;5026977;28;20049;-74
2021/12/19 05:32:50;;;;;;;12.00;2.17;;;7.50;99.90;;;;;;5025774;28;20022;-75
2021/12/19 05:35:23;;;;;;;6.43;1.55;;;7.50;99.90;;;;;;5025781;28;20402;-74
2021/12/19 05:46:02;;;;;;;2.97;1.23;;;7.40;99.90;;;;;;5026936;28;20033;-73
2021/12/19 05:48:28;;;;;;;7.78;1.40;;;7.40;99.90;;;;;;5026454;28;20094;-73
2021/12/19 05:50:53;;;;;;;3.53;1.13;;;7.40;99.90;;;;;;5026715;28;20033;-73
2021/12/19 05:53:19;;;;;;;7.97;0.93;;;7.40;99.90;;;;;;5025358;28;20026;-74
2021/12/19 05:55:44;;;;;;;6.60;0.85;;;7.40;99.90;;;;;;5026778;28;20048;-74
2021/12/19 05:58:10;;;;;;;2.00;0.52;;;7.40;99.90;;;;;;5026697;28;20568;-74
2021/12/19 06:00:36;;;;;;;1.13;0.98;;;7.40;99.90;;;;;;5046420;28;20040;-74
2021/12/19 06:03:09;;;;;;;1.33;0.60;;;7.40;99.90;;;;;;5046126;28;20064;-75
2021/12/19 06:05:35;;;;;;;1.30;0.50;;;7.30;99.90;;;;;;5046163;28;20033;-75
2021/12/19 06:08:00;;;;;;;8.07;1.65;;;7.30;99.90;;;;;;5061337;28;20022;-75
2021/12/19 06:10:28;;;;;;;3.85;1.00;;;7.30;99.90;;;;;;5044463;28;20029;-75
2021/12/19 06:12:59;;;;;;;4.45;0.50;;;7.30;99.90;;;;;;5045931;28;20021;-75
2021/12/19 06:15:24;;;;;;;2.90;0.68;;;7.30;99.90;;;;;;5045983;28;20080;-73
2021/12/19 06:17:52;;;;;;;2.95;1.10;;;7.30;99.90;;;;;;5046050;28;20037;-72
2021/12/19 06:20:17;;;;;;;0.90;0.47;;;7.30;99.90;;;;;;5045870;28;20022;-72
2021/12/19 06:22:43;;;;;;;0.88;0.50;;;7.40;99.90;;;;;;5045803;28;20053;-73
2021/12/19 06:25:09;;;;;;;1.10;1.00;;;7.40;99.90;;;;;;5044374;28;20025;-74
2021/12/19 06:27:43;;;;;;;0.65;0.47;;;7.40;99.90;;;;;;5045136;28;20059;-75
2021/12/19 06:30:10;;;;;;;1.38;0.95;;;7.30;99.90;;;;;;5046074;28;20061;-76
2021/12/19 06:32:36;;;;;;;1.38;0.55;;;7.40;99.90;;;;;;5044241;28;20037;-74
2021/12/19 06:35:07;;;;;;;6.70;0.93;;;7.40;99.90;;;;;;5060901;28;20088;-75
2021/12/19 06:37:37;;;;;;;3.67;1.10;;;7.40;99.90;;;;;;5044562;28;20068;-76
2021/12/19 06:40:08;;;;;;;11.73;1.52;;;7.30;99.90;;;;;;5045562;28;20457;-75
2021/12/19 06:42:34;;;;;;;0.77;0.47;;;7.30;99.90;;;;;;5045392;28;20396;-75
2021/12/19 06:45:00;;;;;;;1.08;0.43;;;7.40;99.90;;;;;;5045550;28;20117;-75
2021/12/19 06:47:25;;;;;;;4.88;1.00;;;7.40;99.90;;;;;;5025814;28;20033;-75
2021/12/19 06:49:51;;;;;;;3.13;0.55;;;7.40;99.90;;;;;;5025729;28;20029;-73
2021/12/19 06:52:16;;;;;;;3.78;1.25;;;7.40;99.90;;;;;;5024401;28;20093;-75
2021/12/19 06:54:42;;;;;;;5.53;0.90;;;7.40;99.90;;;;;;5025618;28;20046;-74
2021/12/19 06:57:07;;;;;;;1.23;0.55;;;7.40;99.90;;;;;;5025554;28;20029;-75
2021/12/19 06:59:33;;;;;;;6.15;1.00;;;7.40;99.90;;;;;;5024065;28;20033;-75
2021/12/19 07:01:59;;;;;;;6.28;0.75;;;7.40;99.90;;;;;;5024061;28;20102;-76
2021/12/19 07:04:24;;;;;;;2.85;1.23;;;7.40;99.90;;;;;;5025141;28;20054;-76
2021/12/19 07:06:50;;;;;;;3.28;1.00;;;7.40;99.90;;;;;;5024905;28;20034;-75
2021/12/19 07:09:15;;;;;;;2.05;0.60;;;7.40;99.90;;;;;;5040379;28;20030;-78
2021/12/19 07:11:42;;;;;;;8.07;1.00;;;7.40;99.90;;;;;;5041997;28;20071;-76
2021/12/19 07:14:11;;;;;;;13.68;1.23;;;7.40;99.90;;;;;;5034162;28;20449;-78
2021/12/19 07:16:36;;;;;;;1.70;0.70;;;7.40;99.90;;;;;;5044051;28;20029;-79
2021/12/19 07:19:02;;;;;;;1.02;0.52;;;7.30;99.90;;;;;;5040315;28;20025;-79
2021/12/19 07:21:29;;;;;;;0.80;0.55;;;7.40;99.90;;;;;;5043282;28;20085;-77
2021/12/19 07:24:09;;;;;;;3.63;1.30;;;7.40;99.90;;;;;;5043056;28;20036;-79
2021/12/19 07:26:35;;;;;;;1.60;0.82;;;7.40;99.90;;;;;;5044938;28;20041;-78
2021/12/19 07:29:00;;;;;;;7.03;1.70;;;7.40;99.90;;;;;;5043046;28;20038;-79
2021/12/19 07:31:29;;;;;;;15.90;2.05;;;7.40;99.90;;;;;;5032965;28;20041;-77
2021/12/19 07:33:55;;;;;;;2.10;1.15;;;7.40;99.90;;;;;;5032931;28;20382;-77
2021/12/19 07:36:24;;;;;;;1.67;0.77;;;7.40;99.90;;;;;;5033824;28;20492;-79
2021/12/19 07:38:57;;;;;;;3.08;0.93;;;7.40;99.90;;;;;;5037203;28;20048;-75
2021/12/19 07:41:23;;;;;;;2.90;1.00;;;7.40;99.90;;;;;;5037353;28;20124;-76
2021/12/19 07:43:52;;;;;;;3.22;1.50;;;7.40;99.90;;;;;;5035171;28;20057;-80
2021/12/19 07:46:17;;;;;;;3.20;1.48;;;7.50;99.90;;;;;;5046746;28;20026;-74
2021/12/19 07:48:43;;;;;;;9.25;1.45;;;7.50;99.90;;;;;;5043720;28;20116;-76
2021/12/19 07:51:09;;;;;;;1.60;0.90;;;7.50;99.90;;;;;;5043942;28;20022;-74
2021/12/19 07:53:34;;;;;;;6.18;1.10;;;7.50;99.90;;;;;;5048568;28;20045;-77
2021/12/19 07:56:00;;;;;;;1.02;0.85;;;7.50;99.90;;;;;;5042166;28;20030;-76
2021/12/19 07:58:26;;;;;;;9.10;1.67;;;7.50;99.90;;;;;;5040528;28;20026;-77
2021/12/19 08:00:52;;;;;;;5.00;0.65;;;7.50;99.90;;;;;;5043467;28;20053;-79
2021/12/19 08:03:21;;;;;;;3.42;1.17;;;7.50;99.90;;;;;;5028773;28;20042;-77
2021/12/19 08:05:48;;;;;;;8.82;1.08;;;7.50;99.90;;;;;;5041423;28;20060;-77
2021/12/19 08:08:17;;;;;;;1.42;0.60;;;7.50;99.90;;;;;;5047159;28;20097;-77
2021/12/19 08:13:10;;;;;;;8.10;1.27;;;7.60;99.90;;;;;;5048323;28;20367;-77
2021/12/19 08:15:37;;;;;;;7.20;1.75;;;7.60;99.90;;;;;;5048193;28;20041;-78
2021/12/19 08:18:05;;;;;;;2.95;0.93;;;7.60;99.90;;;;;;5048020;28;20017;-76
2021/12/19 08:20:31;;;;;;;9.13;1.13;;;7.60;99.90;;;;;;5047753;28;20021;-75
2021/12/19 08:23:06;;;;;;;15.98;2.67;;;7.60;99.90;;;;;;5047947;28;20128;-77
2021/12/19 08:25:32;;;;;;;3.45;1.60;;;7.60;99.90;;;;;;5048147;28;20056;-77
2021/12/19 08:27:57;;;;;;;3.25;1.13;;;7.60;99.90;;;;;;5047231;28;20053;-76
2021/12/19 08:30:30;;;;;;;1.60;1.08;;;7.60;99.90;;;;;;5035234;28;20575;-77
2021/12/19 08:32:56;;;;;;;1.27;0.93;;;7.70;99.90;;;;;;5039324;28;20104;-73
2021/12/19 08:35:23;;;;;;;10.45;1.98;;;7.70;99.90;;;;;;5045588;28;20022;-76
2021/12/19 08:37:48;;;;;;;3.20;0.93;;;7.70;99.90;;;;;;5046512;28;20026;-75
2021/12/19 08:40:14;;;;;;;7.50;1.38;;;7.70;99.90;;;;;;5046556;28;20033;-77
2021/12/19 08:42:40;;;;;;;6.05;1.15;;;7.70;99.90;;;;;;5047495;28;20041;-75
2021/12/19 08:45:07;;;;;;;8.38;1.17;;;7.70;99.90;;;;;;5046288;28;20097;-77
2021/12/19 08:47:33;;;;;;;3.60;1.20;;;7.60;99.90;;;;;;5047467;28;20026;-76
2021/12/19 08:49:58;;;;;;;4.32;1.23;;;7.60;99.90;;;;;;5045574;28;20037;-75
2021/12/19 08:52:24;;;;;;;14.85;1.63;;;7.60;99.90;;;;;;5047414;28;20026;-75
2021/12/19 08:54:49;;;;;;;6.13;1.30;;;7.60;99.90;;;;;;5047881;28;20029;-75
2021/12/19 08:57:15;;;;;;;12.05;1.42;;;7.60;99.90;;;;;;5046470;28;20409;-76
2021/12/19 08:59:42;;;;;;;8.98;1.08;;;7.60;99.90;;;;;;5047421;28;20036;-76
2021/12/19 09:02:08;;;;;;;3.00;1.02;;;7.60;99.90;;;;;;5041919;28;20132;-76
2021/12/19 09:04:33;;;;;;;2.55;0.90;;;7.60;99.90;;;;;;5043996;28;20401;-75
2021/12/19 09:07:00;;;;;;;6.40;1.15;;;7.60;99.90;;;;;;5032959;28;20028;-77
2021/12/19 09:09:26;;;;;;;6.63;1.25;;;7.60;99.90;;;;;;5046216;28;20044;-74
2021/12/19 09:11:52;;;;;;;10.18;1.02;;;7.70;99.90;;;;;;5043953;28;20057;-77
2021/12/19 09:14:29;;;;;;;7.20;1.40;;;7.70;99.90;;;;;;5040949;28;20148;-76
2021/12/19 09:16:55;;;;;;;4.43;1.13;;;7.70;99.90;;;;;;5027890;28;20029;-74
2021/12/19 09:19:22;;;;;;;6.75;0.90;;;7.80;99.90;;;;;;5040152;28;20040;-78
2021/12/19 09:21:49;;;;;;;5.82;1.60;;;7.70;99.90;;;;;;5040421;28;20079;-77
2021/12/19 09:24:17;;;;;;;9.35;0.90;;;7.90;99.90;;;;;;5030280;28;20032;-77
2021/12/19 09:26:44;;;;;;;2.03;0.75;;;7.80;99.90;;;;;;5039524;28;20029;-78
2021/12/19 09:29:10;;;;;;;17.05;1.25;;;7.80;99.90;;;;;;5045563;28;20064;-75
2021/12/19 09:31:36;;;;;;;7.97;1.27;;;7.80;99.90;;;;;;5039426;28;20033;-78
2021/12/19 09:34:03;;;;;;;10.48;1.00;;;7.90;99.90;;;;;;5035877;28;20409;-79
2021/12/19 09:36:29;;;;;;;4.10;2.15;;;7.80;99.90;;;;;;5037381;28;20033;-76
2021/12/19 09:38:55;;;;;;;11.48;1.13;;;7.80;99.90;;;;;;5044917;28;20045;-78
2021/12/19 09:41:44;;;;;;;10.48;1.38;;;7.90;99.90;;;;;;5038771;28;20053;-79
2021/12/19 09:44:14;;;;;;;6.65;1.15;;;7.90;99.90;;;;;;5033579;28;20025;-78
2021/12/19 09:46:43;;;;;;;9.52;1.35;;;7.90;99.90;;;;;;5041756;28;20386;-77
2021/12/19 09:49:12;;;;;;;11.30;1.02;;;7.90;99.90;;;;;;5024873;28;20025;-76
2021/12/19 09:51:38;;;;;;;6.72;0.85;;;7.90;99.90;;;;;;5024977;28;20030;-77
2021/12/19 09:54:05;;;;;;;4.55;1.25;;;8.00;99.90;;;;;;5026624;28;20032;-76
2021/12/19 09:56:34;;;;;;;14.02;1.00;;;8.00;99.90;;;;;;5044145;28;20480;-78
2021/12/19 09:59:17;;;;;;;14.10;1.50;;;8.00;99.90;;;;;;5026187;28;20028;-78
2021/12/19 10:01:42;;;;;;;1.48;0.50;;;8.00;99.90;;;;;;5043135;28;20041;-78
2021/12/19 10:04:28;;;;;;;6.53;1.77;;;8.00;99.90;;;;;;5030489;28;20076;-80
2021/12/19 10:07:03;;;;;;;7.50;1.50;;;8.00;99.90;;;;;;5031454;28;20052;-78
2021/12/19 10:09:29;;;;;;;6.82;1.30;;;8.00;99.90;;;;;;5043804;28;20021;-77
2021/12/19 10:14:29;;;;;;;3.20;0.70;;;8.00;99.90;;;;;;5042709;28;20389;-76
2021/12/19 10:16:55;;;;;;;;;;;8.00;99.90;;;;;;5036264;28;20310;-76
2021/12/19 10:19:21;;;;;;;4.90;1.15;;;8.00;99.90;;;;;;5038148;28;19955;-76
2021/12/19 10:21:48;;;;;;;7.30;1.10;;;8.10;99.90;;;;;;5043147;28;20049;-74
2021/12/19 10:24:33;;;;;;;7.85;1.95;;;8.10;99.90;;;;;;5045432;28;20052;-74
2021/12/19 10:26:59;;;;;;;7.07;1.13;;;8.10;99.90;;;;;;5043946;28;20040;-76
2021/12/19 10:29:44;;;;;;;5.80;0.60;;;8.10;99.90;;;;;;5044018;28;20389;-75
2021/12/19 10:32:10;;;;;;;14.90;1.33;;;8.20;99.90;;;;;;5041617;28;20470;-76
2021/12/19 10:34:36;;;;;;;9.85;1.67;;;8.10;99.90;;;;;;5029309;28;20041;-76
2021/12/19 10:37:05;;;;;;;7.97;1.48;;;8.10;99.90;;;;;;5038882;28;20092;-76
2021/12/19 10:39:36;;;;;;;12.20;1.27;;;8.10;99.90;;;;;;5049923;28;20049;-77
2021/12/19 10:42:02;;;;;;;7.50;1.35;;;8.10;99.90;;;;;;5031238;28;20068;-74
2021/12/19 10:47:25;;;;;;;9.52;2.08;;;8.20;99.90;;;;;;5045469;28;20040;-76
2021/12/19 10:49:51;;;;;;;11.68;2.10;;;8.30;99.90;;;;;;5043224;28;20033;-76
2021/12/19 10:52:35;;;;;;;3.55;1.52;;;8.30;99.90;;;;;;5042989;28;20034;-76
2021/12/19 10:55:08;;;;;;;6.40;1.27;;;8.30;99.90;;;;;;5042100;28;20100;-77
2021/12/19 10:57:42;;;;;;;8.65;2.47;;;8.30;99.90;;;;;;5041069;28;20022;-76
2021/12/19 11:00:21;;;;;;;11.63;1.45;;;8.30;99.90;;;;;;5042210;28;20448;-76
2021/12/19 11:02:48;;;;;;;8.35;1.58;;;8.30;99.90;;;;;;5044252;28;20029;-74
2021/12/19 11:05:39;;;;;;;12.45;1.60;;;8.30;99.90;;;;;;5044336;28;20040;-76
2021/12/19 11:08:10;;;;;;;11.32;1.88;;;8.30;99.90;;;;;;5044167;28;20112;-77
2021/12/19 11:10:38;;;;;;;12.10;1.70;;;8.40;99.90;;;;;;5035565;28;20609;-77
2021/12/19 11:13:16;;;;;;;7.28;1.63;;;8.40;99.90;;;;;;5040589;28;20026;-76
2021/12/19 11:15:42;;;;;;;4.57;1.75;;;8.40;99.90;;;;;;5050371;28;20034;-78
2021/12/19 11:18:09;;;;;;;18.70;2.35;;;8.40;99.90;;;;;;5022876;28;20034;-79
2021/12/19 11:20:35;;;;;;;15.18;2.78;;;8.40;99.90;;;;;;5029997;28;20037;-77
2021/12/19 11:23:02;;;;;;;7.70;1.50;;;8.40;99.90;;;;;;5021950;28;20054;-79
2021/12/19 11:25:27;;;;;;;9.40;1.38;;;8.40;99.90;;;;;;5023714;28;20037;-78
2021/12/19 11:27:54;;;;;;;3.92;1.80;;;8.50;99.90;;;;;;5022228;28;20117;-80
2021/12/19 11:30:20;;;;;;;7.80;0.95;;;8.50;99.90;;;;;;5022362;28;20041;-77
2021/12/19 11:33:17;;;;;;;15.35;1.25;;;8.60;99.90;;;;;;5024114;28;20026;-76
2021/12/19 11:35:47;;;;;;;6.90;2.10;;;8.60;99.90;;;;;;5022497;28;20373;-77
2021/12/19 11:38:21;;;;;;;3.55;1.35;;;8.60;99.90;;;;;;5024702;28;20490;-77
2021/12/19 11:40:51;;;;;;;9.70;1.40;;;8.60;99.90;;;;;;5035713;28;20501;-77
2021/12/19 11:43:19;;;;;;;7.32;1.60;;;8.60;99.90;;;;;;5038977;28;20048;-79
2021/12/19 11:45:57;;;;;;;6.03;0.70;;;8.70;99.90;;;;;;5034086;28;20037;-78
2021/12/19 11:48:29;;;;;;;4.43;1.45;;;8.70;99.90;;;;;;5039115;28;20546;-77
2021/12/19 11:51:20;;;;;;;9.10;1.52;;;8.70;99.90;;;;;;5041003;28;20485;-78
2021/12/19 11:53:51;;;;;;;8.25;1.65;;;8.70;99.90;;;;;;5036017;28;20055;-77
2021/12/19 11:56:19;;;;;;;6.13;1.02;;;8.70;99.90;;;;;;5034261;28;20041;-77
2021/12/19 11:58:49;;;;;;;1.88;1.23;;;8.70;99.90;;;;;;5044518;28;20028;-75
2021/12/19 12:01:34;;;;;;;5.07;1.05;;;8.70;99.90;;;;;;5044285;28;20022;-78
2021/12/19 12:04:21;;;;;;;5.85;0.95;;;8.70;99.90;;;;;;5042099;28;20037;-77
2021/12/19 12:06:56;;;;;;;5.18;1.42;;;8.70;99.90;;;;;;5039695;28;20124;-77
2021/12/19 12:09:24;;;;;;;;;;;8.70;99.90;;;;;;5040904;28;20032;-76
2021/12/19 12:12:08;;;;;;;2.03;0.80;;;8.60;99.90;;;;;;5042626;28;19905;-75
2021/12/19 12:14:47;;;;;;;5.95;1.08;;;8.50;99.90;;;;;;5038958;28;20022;-75
2021/12/19 12:17:21;;;;;;;2.25;0.65;;;8.50;99.90;;;;;;5042374;28;20763;-73
2021/12/19 12:19:54;;;;;;;1.27;0.28;;;8.40;99.90;;;;;;5038284;28;20029;-75
2021/12/19 12:22:36;;;;;;;3.75;0.75;;;8.40;99.90;;;;;;5029616;28;20080;-74
2021/12/19 12:25:30;;;;;;;2.55;0.50;;;8.40;99.90;;;;;;5042729;28;20029;-75
2021/12/19 12:28:03;;;;;;;;;;;8.30;99.90;;;;;;5043500;28;20068;-77
2021/12/19 12:30:34;;;;;;;4.75;1.13;;;8.30;99.90;;;;;;5036756;28;19932;-76
2021/12/19 12:33:03;;;;;;;1.05;0.43;;;8.30;99.90;;;;;;5031566;28;20055;-78
2021/12/19 12:35:35;;;;;;;7.05;0.88;;;8.30;99.90;;;;;;5028522;28;20390;-77
2021/12/19 12:38:01;;;;;;;1.45;0.68;;;8.30;99.90;;;;;;5036623;28;20458;-75
2021/12/19 12:40:49;;;;;;;15.15;1.23;;;8.30;99.90;;;;;;5045561;28;20397;-78
2021/12/19 12:43:22;;;;;;;4.97;1.58;;;8.30;99.90;;;;;;5040756;28;20049;-73
2021/12/19 12:45:55;;;;;;;1.75;0.60;;;8.40;99.90;;;;;;5036788;28;20044;-74
2021/12/19 12:48:41;;;;;;;7.20;1.02;;;8.40;99.90;;;;;;5046861;28;20466;-75
2021/12/19 12:51:17;;;;;;;0.88;0.50;;;8.40;99.90;;;;;;5038742;28;20037;-74
2021/12/19 12:53:48;;;;;;;0.45;0.30;;;8.40;99.90;;;;;;5045985;28;20029;-75
2021/12/19 12:56:22;;;;;;;6.97;1.13;;;8.40;99.90;;;;;;5045585;28;20036;-78
2021/12/19 12:58:54;;;;;;;4.70;0.93;;;8.40;99.90;;;;;;5047433;28;20022;-75
2021/12/19 13:01:47;;;;;;;1.88;0.60;;;8.40;99.90;;;;;;5045963;28;20034;-74
2021/12/19 13:04:24;;;;;;;2.03;0.47;;;8.30;99.90;;;;;;5044214;28;20083;-75
2021/12/19 13:06:53;;;;;;;18.33;4.15;;;8.30;99.90;;;;;;5047019;28;20056;-75
2021/12/19 13:09:26;;;;;;;7.20;1.02;;;8.40;99.90;;;;;;5046682;28;20025;-77
2021/12/19 13:12:19;;;;;;;2.75;0.55;;;8.40;99.90;;;;;;5045200;28;20040;-77
2021/12/19 13:14:54;;;;;;;1.02;0.45;;;8.50;99.90;;;;;;5046192;28;20456;-76
2021/12/19 13:17:27;;;;;;;8.07;1.42;;;8.60;99.90;;;;;;5046923;28;20029;-78
2021/12/19 13:20:08;;;;;;;17.15;1.20;;;8.60;99.90;;;;;;5044914;28;20025;-76
2021/12/19 13:22:39;;;;;;;2.78;1.17;;;8.60;99.90;;;;;;5046335;28;20099;-72
2021/12/19 13:25:12;;;;;;;13.07;1.40;;;8.60;99.90;;;;;;5045321;28;20057;-73
2021/12/19 13:27:46;;;;;;;8.30;1.13;;;8.50;99.90;;;;;;5046659;28;20052;-74
2021/12/19 13:30:20;;;;;;;5.57;1.00;;;8.60;99.90;;;;;;5045221;28;20025;-77
2021/12/19 13:32:48;;;;;;;1.17;0.65;;;8.60;99.90;;;;;;5045610;28;20033;-75
2021/12/19 13:35:19;;;;;;;8.43;1.98;;;8.60;99.90;;;;;;5045095;28;20112;-76
2021/12/19 13:37:48;;;;;;;2.65;1.33;;;8.60;99.90;;;;;;5045148;28;20489;-77
2021/12/19 13:40:16;;;;;;;8.57;1.52;;;8.60;99.90;;;;;;5046482;28;20068;-74
2021/12/19 13:42:57;;;;;;;4.47;1.67;;;8.60;99.90;;;;;;5043858;28;20044;-76
2021/12/19 13:45:27;;;;;;;9.45;1.60;;;8.60;99.90;;;;;;5046409;28;20075;-74
2021/12/19 13:47:54;;;;;;;7.78;1.67;;;8.60;99.90;;;;;;5046460;28;20029;-76
2021/12/19 13:50:20;;;;;;;5.35;1.23;;;8.60;99.90;;;;;;5046454;28;20148;-75
2021/12/19 13:52:54;;;;;;;4.78;1.42;;;8.60;99.90;;;;;;5045065;28;20053;-79
2021/12/19 13:55:21;;;;;;;11.75;1.25;;;8.60;99.90;;;;;;5041948;28;20065;-76
2021/12/19 13:57:48;;;;;;;7.93;1.30;;;8.50;99.90;;;;;;5044389;28;20025;-78
2021/12/19 14:00:31;;;;;;;5.40;0.90;;;8.50;99.90;;;;;;5044169;28;20029;-77
2021/12/19 14:03:05;;;;;;;9.02;0.98;;;8.50;99.90;;;;;;5045971;28;20042;-78
2021/12/19 14:05:36;;;;;;;2.40;0.80;;;8.50;99.90;;;;;;5045858;28;20021;-76
2021/12/19 14:08:24;;;;;;;9.27;1.42;;;8.50;99.90;;;;;;5045770;28;20389;-76
2021/12/19 14:11:05;;;;;;;5.28;1.55;;;8.50;99.90;;;;;;5045934;28;20053;-77
2021/12/19 14:13:33;;;;;;;2.95;1.05;;;8.50;99.90;;;;;;5045374;28;20033;-74
2021/12/19 14:15:59;;;;;;;4.95;0.85;;;8.50;99.90;;;;;;5045787;28;20032;-77